Sand Canyon, California
Current Conditions -  °F | °C
As of 9:15 AM on Wednesday 26 Nov 2014 (Local Time) from KTSP Reporting Station
Clear Clear  
Wind Chill: 64°   Ceiling: Unl
Heat Index: 64°   Visibility: 10mi
Dew Point: 19°   Wind: 9mph
Humidity: 18%   Direction: 100°E
Pressure: 30.42"   Gusts: NA
Location:  35.1338°N, 118.552°W
Report Text: KTSP 261715Z AUTO 10008KT 10SM CLR 18/M07 A3042 RMK AO2
Loading
Personal Weather Stations






























Interactive Weather Map New forecast layout! Learn more

10-Day Weather Forecast

Advertisements
Track Severe Weather on mobile